createdAt,value
2022-12-24T00:00:47.702Z,10.30
2022-12-24T00:03:20.491Z,10.20
2022-12-24T00:05:53.544Z,10.20
2022-12-24T00:08:26.316Z,10.20
2022-12-24T00:10:59.003Z,10.20
2022-12-24T00:13:31.718Z,10.10
2022-12-24T00:16:05.214Z,10.10
2022-12-24T00:18:45.170Z,10.10
2022-12-24T00:21:18.834Z,10.10
2022-12-24T00:23:51.574Z,10.20
2022-12-24T00:26:24.273Z,10.20
2022-12-24T00:28:57.034Z,10.20
2022-12-24T00:31:29.929Z,10.20
2022-12-24T00:34:02.830Z,10.20
2022-12-24T00:36:35.602Z,10.10
2022-12-24T00:39:08.322Z,10.10
2022-12-24T00:41:41.007Z,10.10
2022-12-24T00:44:13.768Z,10.00
2022-12-24T00:46:46.510Z,10.00
2022-12-24T00:49:19.320Z,9.90
2022-12-24T00:51:52.037Z,9.90
2022-12-24T00:54:24.732Z,9.90
2022-12-24T00:56:57.492Z,9.80
2022-12-24T00:59:30.174Z,9.80
2022-12-24T01:02:03.012Z,9.80
2022-12-24T01:04:54.616Z,9.90
2022-12-24T01:07:27.331Z,9.90
2022-12-24T01:10:00.147Z,9.90
2022-12-24T01:12:33.016Z,10.00
2022-12-24T01:15:06.513Z,10.00
2022-12-24T01:17:39.767Z,10.00
2022-12-24T01:20:15.669Z,10.00
2022-12-24T01:22:48.883Z,10.00
2022-12-24T03:05:45.754Z,10.20
2022-12-24T03:08:36.317Z,10.30
2022-12-24T03:11:11.701Z,10.30
2022-12-24T03:13:45.325Z,10.30
2022-12-24T04:10:01.454Z,10.20
2022-12-24T04:12:34.340Z,10.30
2022-12-24T04:15:10.116Z,10.30
2022-12-24T04:17:42.772Z,10.30
2022-12-24T04:20:15.540Z,10.30
2022-12-24T04:22:48.192Z,10.30
2022-12-24T04:25:20.919Z,10.30
2022-12-24T04:27:53.578Z,10.30
2022-12-24T04:30:26.298Z,10.30
2022-12-24T04:32:58.970Z,10.20
2022-12-24T04:35:31.890Z,10.20
2022-12-24T04:38:04.538Z,10.20
2022-12-24T04:40:37.741Z,10.20
2022-12-24T04:43:10.714Z,10.20
2022-12-24T04:45:43.549Z,10.20
2022-12-24T04:48:16.197Z,10.20
2022-12-24T04:50:49.156Z,10.20
2022-12-24T04:53:21.798Z,10.20
2022-12-24T04:55:54.545Z,10.20
2022-12-24T04:58:27.450Z,10.20
2022-12-24T05:01:08.122Z,10.20
2022-12-24T05:03:42.027Z,10.20
2022-12-24T05:06:18.214Z,10.20
2022-12-24T05:09:00.632Z,10.20
2022-12-24T05:11:36.694Z,10.20
2022-12-24T05:14:09.454Z,10.30
2022-12-24T05:16:43.832Z,10.30
2022-12-24T05:19:16.890Z,10.30
2022-12-24T05:22:09.638Z,10.30
2022-12-24T05:25:00.709Z,10.30
2022-12-24T05:27:33.455Z,10.30
2022-12-24T05:30:07.143Z,10.30
2022-12-24T05:32:39.871Z,10.30
2022-12-24T05:35:13.773Z,10.30
2022-12-24T05:37:46.598Z,10.20
2022-12-24T05:40:20.537Z,10.20
2022-12-24T05:42:53.356Z,10.20
2022-12-24T05:45:26.003Z,10.20
2022-12-24T05:47:58.742Z,10.20
2022-12-24T05:50:31.418Z,10.20
2022-12-24T05:53:11.049Z,10.20
2022-12-24T05:55:43.739Z,10.20
2022-12-24T05:58:16.826Z,10.20
2022-12-24T06:00:49.611Z,10.20
2022-12-24T06:03:22.265Z,10.20
2022-12-24T06:06:00.658Z,10.20
2022-12-24T06:08:34.601Z,10.20
2022-12-24T06:11:10.903Z,10.20
2022-12-24T06:13:44.036Z,10.20
2022-12-24T06:16:19.544Z,10.20
2022-12-24T06:18:52.749Z,10.20
2022-12-24T06:21:25.550Z,10.20
2022-12-24T06:23:58.263Z,10.20
2022-12-24T06:26:30.933Z,10.20
2022-12-24T06:29:03.696Z,10.20
2022-12-24T06:31:36.388Z,10.20
2022-12-24T06:34:09.162Z,10.20
2022-12-24T06:36:41.827Z,10.20
2022-12-24T06:39:14.646Z,10.20
2022-12-24T06:41:47.366Z,10.20
2022-12-24T06:44:20.065Z,10.10
2022-12-24T06:46:52.740Z,10.10
2022-12-24T06:49:25.503Z,10.10
2022-12-24T06:51:58.136Z,10.10
2022-12-24T06:54:30.814Z,10.10
2022-12-24T06:57:03.627Z,10.10
2022-12-24T06:59:36.355Z,10.10
2022-12-24T07:02:09.933Z,10.10
2022-12-24T07:04:42.798Z,10.10
2022-12-24T07:07:15.592Z,10.10
2022-12-24T07:09:48.315Z,10.10
2022-12-24T07:12:21.026Z,10.00
2022-12-24T07:14:53.697Z,10.00
2022-12-24T07:17:26.540Z,10.00
2022-12-24T07:19:59.415Z,10.00
2022-12-24T07:22:32.132Z,10.00
2022-12-24T07:25:05.173Z,10.00
2022-12-24T07:27:39.021Z,10.00
2022-12-24T07:30:12.334Z,10.00
2022-12-24T07:32:44.975Z,10.00
2022-12-24T07:35:17.658Z,10.00
2022-12-24T07:37:50.330Z,10.00
2022-12-24T07:40:23.090Z,10.00
2022-12-24T07:42:55.791Z,10.00
2022-12-24T07:45:28.449Z,10.00
2022-12-24T07:48:01.140Z,10.00
2022-12-24T07:50:34.721Z,10.00
2022-12-24T07:53:07.459Z,10.00
2022-12-24T07:55:40.104Z,10.00
2022-12-24T07:58:12.935Z,10.00
2022-12-24T08:00:45.697Z,10.00
2022-12-24T08:03:20.077Z,10.00
2022-12-24T08:05:53.270Z,10.00
2022-12-24T08:08:26.029Z,10.00
2022-12-24T08:11:03.120Z,10.10
2022-12-24T08:13:36.067Z,10.10
2022-12-24T08:16:08.807Z,10.10
2022-12-24T08:18:41.581Z,10.10
2022-12-24T08:21:14.319Z,10.10
2022-12-24T08:23:47.340Z,10.10
2022-12-24T08:26:20.099Z,10.20
2022-12-24T08:28:52.834Z,10.20
2022-12-24T08:31:44.241Z,10.20
2022-12-24T08:34:17.021Z,10.20
2022-12-24T08:36:59.434Z,10.20
2022-12-24T08:39:35.273Z,10.20
2022-12-24T08:42:08.576Z,10.20
2022-12-24T08:44:41.453Z,10.20
2022-12-24T08:47:14.172Z,10.30
2022-12-24T08:49:46.865Z,10.30
2022-12-24T08:52:19.554Z,10.30
2022-12-24T08:54:52.199Z,10.40
2022-12-24T08:57:24.871Z,10.40
2022-12-24T08:59:57.550Z,10.40
2022-12-24T09:02:30.949Z,10.40
2022-12-24T09:05:04.403Z,10.50
2022-12-24T09:07:37.269Z,10.50
2022-12-24T09:10:11.194Z,10.50
2022-12-24T09:12:43.914Z,10.50
2022-12-24T09:15:16.617Z,10.50
2022-12-24T09:17:49.320Z,10.50
2022-12-24T09:20:22.079Z,10.50
2022-12-24T09:22:54.787Z,10.60
2022-12-24T09:25:27.478Z,10.60
2022-12-24T09:28:00.492Z,10.60
2022-12-24T09:30:33.179Z,10.70
2022-12-24T09:33:05.896Z,10.70
2022-12-24T09:35:38.886Z,10.80
2022-12-24T09:38:11.910Z,10.80
2022-12-24T09:40:44.722Z,10.80
2022-12-24T09:43:20.577Z,10.80
2022-12-24T09:46:20.273Z,10.80
2022-12-24T09:48:58.103Z,10.90
2022-12-24T09:51:51.023Z,10.90
2022-12-24T09:54:31.733Z,10.80
2022-12-24T09:57:20.450Z,10.90
2022-12-24T09:59:53.685Z,10.90
2022-12-24T10:02:26.560Z,10.90
2022-12-24T10:04:59.338Z,11.00
2022-12-24T10:08:00.328Z,11.00
2022-12-24T10:10:39.589Z,11.00
2022-12-24T10:13:29.541Z,11.00
2022-12-24T10:16:28.444Z,11.00
2022-12-24T10:19:17.192Z,10.90
2022-12-24T10:22:17.687Z,10.90
2022-12-24T10:25:02.135Z,10.80
2022-12-24T10:27:40.251Z,10.80
2022-12-24T10:30:21.865Z,10.80
2022-12-24T10:32:55.365Z,10.80
2022-12-24T10:35:33.815Z,10.80
2022-12-24T10:38:09.166Z,10.90
2022-12-24T10:40:45.300Z,10.90
2022-12-24T10:43:23.791Z,10.90
2022-12-24T10:46:02.466Z,11.00
2022-12-24T10:48:50.616Z,11.10
2022-12-24T10:51:29.533Z,11.10
2022-12-24T10:54:08.761Z,11.10
2022-12-24T10:56:44.783Z,11.10
2022-12-24T10:59:31.091Z,11.20
2022-12-24T11:02:32.830Z,11.20
2022-12-24T11:05:27.525Z,11.20
2022-12-24T11:08:03.207Z,11.20
2022-12-24T11:10:39.786Z,11.20
2022-12-24T11:13:41.083Z,11.20
2022-12-24T11:16:25.167Z,11.10
2022-12-24T11:19:18.351Z,11.10
2022-12-24T11:21:59.712Z,11.20
2022-12-24T11:24:35.443Z,11.20
2022-12-24T11:27:33.876Z,11.20
2022-12-24T11:30:15.751Z,11.20
2022-12-24T11:33:15.996Z,11.20
2022-12-24T11:35:53.626Z,11.30
2022-12-24T11:38:28.273Z,11.30
2022-12-24T11:41:12.302Z,11.40
2022-12-24T11:43:47.767Z,11.50
2022-12-24T11:46:36.480Z,11.50
2022-12-24T11:49:12.199Z,11.50
2022-12-24T11:52:11.950Z,11.50
2022-12-24T11:55:01.547Z,11.50
2022-12-24T11:58:17.265Z,11.60
2022-12-24T12:00:51.950Z,11.60
2022-12-24T12:03:32.158Z,11.60
2022-12-24T12:06:14.315Z,11.50
2022-12-24T12:08:49.362Z,11.50
2022-12-24T12:11:23.805Z,11.50
2022-12-24T12:13:59.811Z,11.50
2022-12-24T12:17:09.940Z,11.50
2022-12-24T12:19:57.643Z,11.50
2022-12-24T12:22:49.606Z,11.40
2022-12-24T12:25:57.135Z,11.40
2022-12-24T12:28:41.128Z,11.40
2022-12-24T12:31:26.097Z,11.40
2022-12-24T12:34:44.840Z,11.30
2022-12-24T12:37:33.810Z,11.20
2022-12-24T12:40:16.410Z,11.20
2022-12-24T12:43:07.513Z,11.20
2022-12-24T12:45:57.211Z,11.20
2022-12-24T12:49:02.540Z,11.20
2022-12-24T12:51:42.164Z,11.20
2022-12-24T12:54:36.147Z,11.20
2022-12-24T12:57:13.629Z,11.20
2022-12-24T13:00:12.270Z,11.20
2022-12-24T13:03:19.788Z,11.20
2022-12-24T13:06:04.460Z,11.20
2022-12-24T13:09:01.849Z,11.10
2022-12-24T13:12:19.468Z,11.10
2022-12-24T13:15:31.177Z,11.00
2022-12-24T13:18:30.240Z,10.90
2022-12-24T13:21:03.838Z,10.90
2022-12-24T13:23:36.614Z,10.90
2022-12-24T13:26:14.420Z,10.80
2022-12-24T13:28:47.185Z,10.80
2022-12-24T13:31:20.082Z,10.90
2022-12-24T13:34:01.394Z,10.90
2022-12-24T13:37:03.185Z,10.90
2022-12-24T13:40:15.386Z,10.90
2022-12-24T13:43:04.693Z,10.90
2022-12-24T13:45:37.493Z,10.90
2022-12-24T13:48:10.139Z,10.90
2022-12-24T13:50:47.883Z,10.90
2022-12-24T13:53:40.879Z,10.90
2022-12-24T13:56:13.476Z,10.90
2022-12-24T13:58:48.902Z,10.90
2022-12-24T14:01:43.059Z,10.90
2022-12-24T14:04:34.948Z,10.90
2022-12-24T14:07:09.115Z,10.90
2022-12-24T14:09:49.673Z,10.90
2022-12-24T14:12:33.645Z,10.90
2022-12-24T14:15:55.015Z,10.90
2022-12-24T14:18:28.495Z,10.90
2022-12-24T14:21:02.505Z,10.80
2022-12-24T14:23:53.971Z,10.80
2022-12-24T14:26:33.534Z,10.80
2022-12-24T14:29:18.575Z,10.80
2022-12-24T14:31:56.766Z,10.70
2022-12-24T14:34:29.879Z,10.80
2022-12-24T14:37:04.385Z,10.80
2022-12-24T14:39:42.024Z,10.80
2022-12-24T14:42:26.682Z,10.80
2022-12-24T14:45:05.415Z,10.80
2022-12-24T14:47:52.070Z,10.80
2022-12-24T14:50:33.544Z,10.80
2022-12-24T14:53:28.114Z,10.80
2022-12-24T14:56:19.381Z,10.80
2022-12-24T14:58:52.502Z,10.70
2022-12-24T15:01:28.205Z,10.70
2022-12-24T15:04:10.136Z,10.70
2022-12-24T15:06:53.576Z,10.70
2022-12-24T15:09:33.766Z,10.70
2022-12-24T15:12:11.378Z,10.70
2022-12-24T15:14:45.830Z,10.70
2022-12-24T15:17:18.610Z,10.70
2022-12-24T15:19:52.732Z,10.70
2022-12-24T15:22:29.805Z,10.70
2022-12-24T15:25:02.496Z,10.70
2022-12-24T15:27:39.390Z,10.70
2022-12-24T15:30:18.551Z,10.70
2022-12-24T15:32:53.743Z,10.70
2022-12-24T15:35:30.523Z,10.70
2022-12-24T15:38:06.315Z,10.70
2022-12-24T15:40:39.091Z,10.70
2022-12-24T15:43:11.847Z,10.70
2022-12-24T15:45:46.115Z,10.70
2022-12-24T15:48:24.112Z,10.70
2022-12-24T15:51:03.626Z,10.70
2022-12-24T15:53:43.553Z,10.70
2022-12-24T15:56:38.824Z,10.60
2022-12-24T15:59:25.705Z,10.60
2022-12-24T16:02:28.092Z,10.60
2022-12-24T16:05:25.888Z,10.60
2022-12-24T16:08:13.607Z,10.60
2022-12-24T16:11:07.672Z,10.60
2022-12-24T16:13:50.537Z,10.60
2022-12-24T16:16:35.491Z,10.60
2022-12-24T16:19:18.096Z,10.60
2022-12-24T16:21:56.598Z,10.60
2022-12-24T16:24:30.838Z,10.60
2022-12-24T16:27:12.743Z,10.50
2022-12-24T16:29:46.749Z,10.60
2022-12-24T16:32:36.119Z,10.60
2022-12-24T16:35:26.262Z,10.60
2022-12-24T16:37:58.941Z,10.50
2022-12-24T16:40:31.612Z,10.50
2022-12-24T16:43:22.817Z,10.50
2022-12-24T16:46:02.147Z,10.50
2022-12-24T16:48:37.641Z,10.50
2022-12-24T16:51:10.429Z,10.50
2022-12-24T16:53:43.128Z,10.40
2022-12-24T16:56:17.054Z,10.40
2022-12-24T16:58:49.802Z,10.40
2022-12-24T17:01:22.512Z,10.40
2022-12-24T17:03:55.279Z,10.40
2022-12-24T17:06:28.071Z,10.40
2022-12-24T17:09:00.741Z,10.50
2022-12-24T17:11:33.484Z,10.40
2022-12-24T17:14:08.704Z,10.40
2022-12-24T17:16:42.620Z,10.40
2022-12-24T17:19:15.374Z,10.40
2022-12-24T17:21:49.003Z,10.50
2022-12-24T17:24:21.694Z,10.40
2022-12-24T17:26:54.390Z,10.50
2022-12-24T17:29:27.137Z,10.50
2022-12-24T17:31:59.833Z,10.40
2022-12-24T17:34:32.722Z,10.40
2022-12-24T17:37:05.385Z,10.40
2022-12-24T17:39:38.199Z,10.40
2022-12-24T17:42:11.027Z,10.30
2022-12-24T17:44:43.845Z,10.30
2022-12-24T17:47:16.546Z,10.30
2022-12-24T17:49:49.274Z,10.40
2022-12-24T17:52:22.027Z,10.30
2022-12-24T17:54:54.874Z,10.40
2022-12-24T17:57:27.883Z,10.40
2022-12-24T18:00:00.734Z,10.30
2022-12-24T18:02:33.630Z,10.30
2022-12-24T18:05:06.737Z,10.30
2022-12-24T18:07:39.384Z,10.30
2022-12-24T18:10:12.099Z,10.30
2022-12-24T18:12:44.792Z,10.30
2022-12-24T18:15:21.877Z,10.30
2022-12-24T18:17:55.877Z,10.30
2022-12-24T18:20:30.147Z,10.30
2022-12-24T18:23:03.225Z,10.40
2022-12-24T18:25:35.924Z,10.40
2022-12-24T18:28:08.577Z,10.30
2022-12-24T18:30:41.345Z,10.30
2022-12-24T18:33:14.017Z,10.30
2022-12-24T18:35:46.774Z,10.30
2022-12-24T18:38:19.530Z,10.30
2022-12-24T18:40:52.291Z,10.30
2022-12-24T18:43:24.952Z,10.20
2022-12-24T18:45:57.621Z,10.20
2022-12-24T18:48:30.296Z,10.20
2022-12-24T18:51:03.496Z,10.20
2022-12-24T18:53:37.208Z,10.20
2022-12-24T18:56:15.777Z,10.20
2022-12-24T18:58:51.593Z,10.20
2022-12-24T19:01:27.061Z,10.20
2022-12-24T19:04:00.301Z,10.20
2022-12-24T19:06:33.104Z,10.20
2022-12-24T19:09:05.932Z,10.10
2022-12-24T19:11:41.230Z,10.20
2022-12-24T19:14:14.003Z,10.20
2022-12-24T19:16:46.757Z,10.20
2022-12-24T19:19:23.882Z,10.10
2022-12-24T19:21:56.698Z,10.20
2022-12-24T19:24:29.601Z,10.10
2022-12-24T19:27:02.323Z,10.10
2022-12-24T19:29:35.564Z,10.10
2022-12-24T19:32:08.517Z,10.10
2022-12-24T19:34:41.298Z,10.10
2022-12-24T19:37:14.220Z,10.10
2022-12-24T19:39:46.917Z,10.10
2022-12-24T19:42:19.619Z,10.10
2022-12-24T19:44:52.314Z,10.00
2022-12-24T19:47:24.995Z,10.00
2022-12-24T19:49:57.984Z,10.00
2022-12-24T19:52:30.691Z,10.00
2022-12-24T19:55:03.446Z,10.00
2022-12-24T19:57:36.292Z,10.00
2022-12-24T20:00:10.303Z,10.00
2022-12-24T20:02:45.769Z,10.00
2022-12-24T20:05:18.601Z,10.00
2022-12-24T20:07:51.321Z,10.00
2022-12-24T20:10:23.953Z,10.00
2022-12-24T20:13:00.922Z,10.00
2022-12-24T20:15:43.039Z,10.00
2022-12-24T20:18:15.809Z,10.00
2022-12-24T20:20:48.440Z,10.00
2022-12-24T20:23:21.268Z,10.00
2022-12-24T20:26:01.813Z,10.00
2022-12-24T20:28:36.550Z,10.00
2022-12-24T20:31:29.560Z,10.00
2022-12-24T20:34:03.582Z,10.00
2022-12-24T20:36:37.459Z,10.00
2022-12-24T20:39:12.504Z,10.00
2022-12-24T20:41:45.197Z,10.00
2022-12-24T20:44:17.949Z,10.00
2022-12-24T20:46:50.627Z,10.00
2022-12-24T20:49:23.602Z,10.00
2022-12-24T20:51:56.243Z,10.00
2022-12-24T20:54:28.952Z,10.00
2022-12-24T20:57:01.647Z,10.00
2022-12-24T20:59:34.405Z,10.00
2022-12-24T21:02:07.852Z,10.00
2022-12-24T21:04:40.680Z,10.00
2022-12-24T21:07:14.366Z,10.00
2022-12-24T21:09:47.069Z,10.00
2022-12-24T21:12:38.423Z,10.00
2022-12-24T21:15:11.566Z,10.00
2022-12-24T21:17:44.879Z,10.00
2022-12-24T21:20:18.076Z,10.00
2022-12-24T21:22:53.459Z,10.00
2022-12-24T21:25:30.016Z,10.00
2022-12-24T21:28:03.029Z,10.00
2022-12-24T21:30:35.762Z,10.00
2022-12-24T21:33:08.433Z,10.00
2022-12-24T21:35:41.098Z,10.10
2022-12-24T21:38:14.303Z,10.10
2022-12-24T21:40:58.205Z,10.00
2022-12-24T21:43:32.673Z,10.00
2022-12-24T21:46:10.246Z,10.00
2022-12-24T21:49:02.085Z,10.10
2022-12-24T21:51:35.012Z,10.10
2022-12-24T21:54:26.320Z,10.10
2022-12-24T21:57:20.672Z,10.10
2022-12-24T21:59:56.431Z,10.10
2022-12-24T22:02:29.458Z,10.10
2022-12-24T22:05:02.272Z,10.10
2022-12-24T22:07:54.919Z,10.10
2022-12-24T22:10:46.674Z,10.20
2022-12-24T22:13:19.402Z,10.20
2022-12-24T22:15:53.490Z,10.20
2022-12-24T22:18:26.674Z,10.10
2022-12-24T22:21:02.455Z,10.10
2022-12-24T22:23:41.909Z,10.10
2022-12-24T22:26:17.299Z,10.10
2022-12-24T22:28:49.958Z,10.10
2022-12-24T22:31:23.835Z,10.10
2022-12-24T22:33:56.650Z,10.10
2022-12-24T22:36:30.591Z,10.10
2022-12-24T22:39:03.594Z,10.10
2022-12-24T22:41:36.299Z,10.10
2022-12-24T22:44:09.935Z,10.10
2022-12-24T22:46:42.763Z,10.10
2022-12-24T22:49:15.613Z,10.10
2022-12-24T22:51:48.414Z,10.00
2022-12-24T22:54:21.607Z,10.00
2022-12-24T22:56:54.323Z,10.00
2022-12-24T22:59:26.971Z,10.00
2022-12-24T23:02:00.102Z,10.00
2022-12-24T23:04:37.607Z,10.00
2022-12-24T23:07:12.053Z,10.00
2022-12-24T23:09:44.773Z,10.00
2022-12-24T23:12:37.437Z,10.00
2022-12-24T23:15:10.539Z,10.00
2022-12-24T23:17:43.231Z,10.00
2022-12-24T23:20:16.142Z,9.90
2022-12-24T23:22:48.775Z,9.90
2022-12-24T23:25:21.691Z,9.90
2022-12-24T23:27:54.360Z,10.00
2022-12-24T23:30:27.248Z,10.00
2022-12-24T23:32:59.935Z,10.00
2022-12-24T23:35:32.748Z,10.00
2022-12-24T23:38:05.417Z,9.90
2022-12-24T23:40:40.820Z,9.90
2022-12-24T23:43:13.834Z,9.90
2022-12-24T23:45:47.971Z,9.90
2022-12-24T23:48:21.703Z,10.00
2022-12-24T23:51:05.786Z,10.00
2022-12-24T23:53:38.556Z,10.00
2022-12-24T23:56:12.420Z,10.00
2022-12-24T23:58:45.168Z,10.00
